Terminal Aerodrome Forecast
Issued by NWS

Home | Current Version | Previous Version | Text Only | Print | Product List | Glossary On
Versions: 1 2 3 4 5 6 7 8 9 10 11 12 13 14 15 16 17
112
FTUS45 KRIW 171725
TAFCPR
TAF
KCPR 171725Z 1718/1818 24009KT P6SM FEW120
     FM172200 VRB18G30KT P6SM VCTS SCT070CB BKN110
     FM180200 VRB10G18KT P6SM VCSH SCT080 BKN120
     FM180700 26008KT P6SM SCT120=

USA.gov is the U.S. government's official web portal to all federal, state and local government web resources and services.